sensor_id;sensor_type;location;lat;lon;timestamp;P1;durP1;ratioP1;P2;durP2;ratioP2
32786;SDS011;19139;49.372;8.580;2023-01-19T00:01:46;5.07;;;4.30;;
32786;SDS011;19139;49.372;8.580;2023-01-19T00:04:18;6.30;;;4.60;;
32786;SDS011;19139;49.372;8.580;2023-01-19T00:06:49;5.93;;;4.50;;
32786;SDS011;19139;49.372;8.580;2023-01-19T00:09:16;5.43;;;3.77;;
32786;SDS011;19139;49.372;8.580;2023-01-19T00:11:47;6.57;;;3.80;;
32786;SDS011;19139;49.372;8.580;2023-01-19T00:14:19;6.23;;;4.43;;
32786;SDS011;19139;49.372;8.580;2023-01-19T00:16:46;5.37;;;4.63;;
32786;SDS011;19139;49.372;8.580;2023-01-19T00:19:17;5.10;;;4.20;;
32786;SDS011;19139;49.372;8.580;2023-01-19T00:21:48;4.57;;;3.77;;
32786;SDS011;19139;49.372;8.580;2023-01-19T00:24:15;4.67;;;4.17;;
32786;SDS011;19139;49.372;8.580;2023-01-19T00:26:47;4.03;;;3.63;;
32786;SDS011;19139;49.372;8.580;2023-01-19T00:29:18;6.13;;;3.83;;
32786;SDS011;19139;49.372;8.580;2023-01-19T00:31:45;5.63;;;4.20;;
32786;SDS011;19139;49.372;8.580;2023-01-19T00:34:16;6.80;;;4.27;;
32786;SDS011;19139;49.372;8.580;2023-01-19T00:36:48;4.63;;;3.93;;
32786;SDS011;19139;49.372;8.580;2023-01-19T00:39:15;5.97;;;4.63;;
32786;SDS011;19139;49.372;8.580;2023-01-19T00:41:46;3.90;;;3.50;;
32786;SDS011;19139;49.372;8.580;2023-01-19T00:44:36;5.07;;;3.90;;
32786;SDS011;19139;49.372;8.580;2023-01-19T00:47:08;5.20;;;4.27;;
32786;SDS011;19139;49.372;8.580;2023-01-19T00:49:34;4.43;;;4.03;;
32786;SDS011;19139;49.372;8.580;2023-01-19T00:52:06;5.17;;;3.47;;
32786;SDS011;19139;49.372;8.580;2023-01-19T00:54:37;5.93;;;4.53;;
32786;SDS011;19139;49.372;8.580;2023-01-19T00:57:09;3.97;;;3.50;;
32786;SDS011;19139;49.372;8.580;2023-01-19T00:59:35;5.87;;;4.30;;
32786;SDS011;19139;49.372;8.580;2023-01-19T01:02:07;4.10;;;3.70;;
32786;SDS011;19139;49.372;8.580;2023-01-19T01:04:34;4.77;;;3.97;;
32786;SDS011;19139;49.372;8.580;2023-01-19T01:07:01;6.67;;;4.10;;
32786;SDS011;19139;49.372;8.580;2023-01-19T01:09:27;4.93;;;3.83;;
32786;SDS011;19139;49.372;8.580;2023-01-19T01:11:54;4.50;;;4.10;;
32786;SDS011;19139;49.372;8.580;2023-01-19T01:14:22;4.67;;;3.73;;
32786;SDS011;19139;49.372;8.580;2023-01-19T01:16:49;5.20;;;3.70;;
32786;SDS011;19139;49.372;8.580;2023-01-19T01:19:16;6.37;;;4.23;;
32786;SDS011;19139;49.372;8.580;2023-01-19T01:21:43;4.30;;;3.90;;
32786;SDS011;19139;49.372;8.580;2023-01-19T01:24:09;5.30;;;3.90;;
32786;SDS011;19139;49.372;8.580;2023-01-19T01:26:36;4.93;;;3.77;;
32786;SDS011;19139;49.372;8.580;2023-01-19T01:29:04;4.80;;;3.77;;
32786;SDS011;19139;49.372;8.580;2023-01-19T01:31:31;5.80;;;4.40;;
32786;SDS011;19139;49.372;8.580;2023-01-19T01:33:58;6.63;;;3.83;;
32786;SDS011;19139;49.372;8.580;2023-01-19T01:36:25;5.10;;;4.33;;
32786;SDS011;19139;49.372;8.580;2023-01-19T01:38:54;5.17;;;3.87;;
32786;SDS011;19139;49.372;8.580;2023-01-19T01:41:20;4.07;;;3.67;;
32786;SDS011;19139;49.372;8.580;2023-01-19T01:46:19;5.27;;;3.63;;
32786;SDS011;19139;49.372;8.580;2023-01-19T01:49:06;4.83;;;4.30;;
32786;SDS011;19139;49.372;8.580;2023-01-19T01:51:42;4.07;;;3.67;;
32786;SDS011;19139;49.372;8.580;2023-01-19T01:54:23;4.27;;;3.70;;
32786;SDS011;19139;49.372;8.580;2023-01-19T01:56:53;4.50;;;3.53;;
32786;SDS011;19139;49.372;8.580;2023-01-19T01:59:25;3.87;;;3.40;;
32786;SDS011;19139;49.372;8.580;2023-01-19T02:02:00;5.13;;;4.00;;
32786;SDS011;19139;49.372;8.580;2023-01-19T02:07:59;5.30;;;3.73;;
32786;SDS011;19139;49.372;8.580;2023-01-19T02:10:50;4.67;;;3.57;;
32786;SDS011;19139;49.372;8.580;2023-01-19T02:13:37;3.43;;;3.13;;
32786;SDS011;19139;49.372;8.580;2023-01-19T02:16:08;3.97;;;3.27;;
32786;SDS011;19139;49.372;8.580;2023-01-19T02:18:36;4.97;;;4.03;;
32786;SDS011;19139;49.372;8.580;2023-01-19T02:21:20;4.60;;;3.43;;
32786;SDS011;19139;49.372;8.580;2023-01-19T02:26:22;5.20;;;3.40;;
32786;SDS011;19139;49.372;8.580;2023-01-19T02:28:57;4.33;;;3.87;;
32786;SDS011;19139;49.372;8.580;2023-01-19T02:31:30;4.90;;;3.50;;
32786;SDS011;19139;49.372;8.580;2023-01-19T02:33:58;3.90;;;3.50;;
32786;SDS011;19139;49.372;8.580;2023-01-19T02:36:27;4.97;;;3.20;;
32786;SDS011;19139;49.372;8.580;2023-01-19T02:39:00;4.43;;;3.73;;
32786;SDS011;19139;49.372;8.580;2023-01-19T02:41:29;5.13;;;3.93;;
32786;SDS011;19139;49.372;8.580;2023-01-19T02:44:02;6.13;;;3.70;;
32786;SDS011;19139;49.372;8.580;2023-01-19T02:46:31;4.17;;;3.33;;
32786;SDS011;19139;49.372;8.580;2023-01-19T02:48:58;4.23;;;3.33;;
32786;SDS011;19139;49.372;8.580;2023-01-19T02:51:26;4.60;;;3.30;;
32786;SDS011;19139;49.372;8.580;2023-01-19T02:59:27;3.83;;;3.43;;
32786;SDS011;19139;49.372;8.580;2023-01-19T03:10:19;3.60;;;3.23;;
32786;SDS011;19139;49.372;8.580;2023-01-19T03:12:56;3.50;;;3.10;;
32786;SDS011;19139;49.372;8.580;2023-01-19T03:15:38;3.67;;;3.27;;
32786;SDS011;19139;49.372;8.580;2023-01-19T03:18:12;4.50;;;3.50;;
32786;SDS011;19139;49.372;8.580;2023-01-19T03:20:42;3.53;;;3.23;;
32786;SDS011;19139;49.372;8.580;2023-01-19T03:23:10;3.47;;;3.13;;
32786;SDS011;19139;49.372;8.580;2023-01-19T03:25:40;3.87;;;3.13;;
32786;SDS011;19139;49.372;8.580;2023-01-19T03:28:09;4.20;;;3.80;;
32786;SDS011;19139;49.372;8.580;2023-01-19T03:30:39;3.93;;;3.57;;
32786;SDS011;19139;49.372;8.580;2023-01-19T03:33:13;3.30;;;3.00;;
32786;SDS011;19139;49.372;8.580;2023-01-19T03:35:46;3.60;;;3.00;;
32786;SDS011;19139;49.372;8.580;2023-01-19T03:38:16;3.67;;;3.37;;
32786;SDS011;19139;49.372;8.580;2023-01-19T03:40:45;4.70;;;3.60;;
32786;SDS011;19139;49.372;8.580;2023-01-19T03:43:14;4.67;;;3.57;;
32786;SDS011;19139;49.372;8.580;2023-01-19T03:45:42;4.63;;;3.50;;
32786;SDS011;19139;49.372;8.580;2023-01-19T03:48:10;4.03;;;3.63;;
32786;SDS011;19139;49.372;8.580;2023-01-19T03:50:37;3.17;;;2.87;;
32786;SDS011;19139;49.372;8.580;2023-01-19T03:53:09;3.87;;;3.37;;
32786;SDS011;19139;49.372;8.580;2023-01-19T03:55:37;4.00;;;2.93;;
32786;SDS011;19139;49.372;8.580;2023-01-19T03:58:06;3.57;;;3.07;;
32786;SDS011;19139;49.372;8.580;2023-01-19T04:00:33;4.50;;;3.33;;
32786;SDS011;19139;49.372;8.580;2023-01-19T04:03:05;4.23;;;3.30;;
32786;SDS011;19139;49.372;8.580;2023-01-19T04:05:37;3.63;;;2.90;;
32786;SDS011;19139;49.372;8.580;2023-01-19T04:08:04;4.70;;;3.20;;
32786;SDS011;19139;49.372;8.580;2023-01-19T04:10:31;3.57;;;3.27;;
32786;SDS011;19139;49.372;8.580;2023-01-19T04:12:59;3.60;;;3.30;;
32786;SDS011;19139;49.372;8.580;2023-01-19T04:15:27;3.87;;;2.80;;
32786;SDS011;19139;49.372;8.580;2023-01-19T04:17:58;3.20;;;2.90;;
32786;SDS011;19139;49.372;8.580;2023-01-19T04:20:26;3.37;;;3.07;;
32786;SDS011;19139;49.372;8.580;2023-01-19T04:22:53;4.10;;;3.10;;
32786;SDS011;19139;49.372;8.580;2023-01-19T04:25:24;3.23;;;2.90;;
32786;SDS011;19139;49.372;8.580;2023-01-19T04:27:51;3.40;;;3.10;;
32786;SDS011;19139;49.372;8.580;2023-01-19T04:30:18;4.30;;;3.50;;
32786;SDS011;19139;49.372;8.580;2023-01-19T04:32:45;3.13;;;2.83;;
32786;SDS011;19139;49.372;8.580;2023-01-19T04:35:12;4.07;;;3.70;;
32786;SDS011;19139;49.372;8.580;2023-01-19T04:37:38;4.10;;;3.67;;
32786;SDS011;19139;49.372;8.580;2023-01-19T04:40:05;2.90;;;2.60;;
32786;SDS011;19139;49.372;8.580;2023-01-19T04:42:36;3.90;;;3.33;;
32786;SDS011;19139;49.372;8.580;2023-01-19T04:45:02;3.00;;;2.70;;
32786;SDS011;19139;49.372;8.580;2023-01-19T04:47:31;3.60;;;2.97;;
32786;SDS011;19139;49.372;8.580;2023-01-19T04:49:58;3.30;;;3.00;;
32786;SDS011;19139;49.372;8.580;2023-01-19T04:52:30;3.63;;;2.83;;
32786;SDS011;19139;49.372;8.580;2023-01-19T04:55:03;2.83;;;2.50;;
32786;SDS011;19139;49.372;8.580;2023-01-19T04:57:31;3.83;;;2.73;;
32786;SDS011;19139;49.372;8.580;2023-01-19T04:59:58;3.67;;;3.00;;
32786;SDS011;19139;49.372;8.580;2023-01-19T05:02:24;3.43;;;3.13;;
32786;SDS011;19139;49.372;8.580;2023-01-19T05:04:51;3.70;;;3.17;;
32786;SDS011;19139;49.372;8.580;2023-01-19T05:07:18;3.40;;;3.10;;
32786;SDS011;19139;49.372;8.580;2023-01-19T05:09:49;3.17;;;2.87;;
32786;SDS011;19139;49.372;8.580;2023-01-19T05:12:16;3.50;;;3.07;;
32786;SDS011;19139;49.372;8.580;2023-01-19T05:14:43;3.53;;;3.00;;
32786;SDS011;19139;49.372;8.580;2023-01-19T05:17:09;3.13;;;2.70;;
32786;SDS011;19139;49.372;8.580;2023-01-19T05:19:36;3.30;;;3.00;;
32786;SDS011;19139;49.372;8.580;2023-01-19T05:22:08;2.80;;;2.60;;
32786;SDS011;19139;49.372;8.580;2023-01-19T05:24:35;3.23;;;2.93;;
32786;SDS011;19139;49.372;8.580;2023-01-19T05:27:07;3.37;;;3.07;;
32786;SDS011;19139;49.372;8.580;2023-01-19T05:29:34;3.07;;;2.77;;
32786;SDS011;19139;49.372;8.580;2023-01-19T05:32:00;2.60;;;2.40;;
32786;SDS011;19139;49.372;8.580;2023-01-19T05:34:27;3.23;;;2.93;;
32786;SDS011;19139;49.372;8.580;2023-01-19T05:36:54;3.87;;;3.00;;
32786;SDS011;19139;49.372;8.580;2023-01-19T05:39:20;3.73;;;3.07;;
32786;SDS011;19139;49.372;8.580;2023-01-19T05:41:47;3.80;;;3.30;;
32786;SDS011;19139;49.372;8.580;2023-01-19T05:44:14;3.40;;;3.10;;
32786;SDS011;19139;49.372;8.580;2023-01-19T05:46:40;3.33;;;3.03;;
32786;SDS011;19139;49.372;8.580;2023-01-19T05:49:07;3.87;;;2.90;;
32786;SDS011;19139;49.372;8.580;2023-01-19T05:51:34;3.50;;;2.87;;
32786;SDS011;19139;49.372;8.580;2023-01-19T05:54:06;2.90;;;2.60;;
32786;SDS011;19139;49.372;8.580;2023-01-19T05:56:33;3.13;;;2.83;;
32786;SDS011;19139;49.372;8.580;2023-01-19T05:59:01;3.10;;;2.47;;
32786;SDS011;19139;49.372;8.580;2023-01-19T06:01:28;3.47;;;2.87;;
32786;SDS011;19139;49.372;8.580;2023-01-19T06:03:54;3.07;;;2.77;;
32786;SDS011;19139;49.372;8.580;2023-01-19T06:06:21;3.43;;;2.97;;
32786;SDS011;19139;49.372;8.580;2023-01-19T06:08:48;3.27;;;2.80;;
32786;SDS011;19139;49.372;8.580;2023-01-19T06:11:15;3.50;;;3.20;;
32786;SDS011;19139;49.372;8.580;2023-01-19T06:13:41;3.37;;;3.07;;
32786;SDS011;19139;49.372;8.580;2023-01-19T06:16:08;3.57;;;2.90;;
32786;SDS011;19139;49.372;8.580;2023-01-19T06:18:35;3.30;;;3.00;;
32786;SDS011;19139;49.372;8.580;2023-01-19T06:21:08;3.90;;;2.90;;
32786;SDS011;19139;49.372;8.580;2023-01-19T06:23:37;3.43;;;2.83;;
32786;SDS011;19139;49.372;8.580;2023-01-19T06:26:04;3.27;;;2.93;;
32786;SDS011;19139;49.372;8.580;2023-01-19T06:28:35;3.37;;;3.07;;
32786;SDS011;19139;49.372;8.580;2023-01-19T06:31:02;2.47;;;2.27;;
32786;SDS011;19139;49.372;8.580;2023-01-19T06:33:29;3.77;;;3.07;;
32786;SDS011;19139;49.372;8.580;2023-01-19T06:35:56;2.67;;;2.47;;
32786;SDS011;19139;49.372;8.580;2023-01-19T06:38:23;3.67;;;2.80;;
32786;SDS011;19139;49.372;8.580;2023-01-19T06:40:51;3.27;;;2.70;;
32786;SDS011;19139;49.372;8.580;2023-01-19T06:43:28;2.93;;;2.70;;
32786;SDS011;19139;49.372;8.580;2023-01-19T06:45:56;3.40;;;2.80;;
32786;SDS011;19139;49.372;8.580;2023-01-19T06:48:25;3.43;;;2.70;;
32786;SDS011;19139;49.372;8.580;2023-01-19T06:50:52;2.97;;;2.67;;
32786;SDS011;19139;49.372;8.580;2023-01-19T06:53:19;3.07;;;2.77;;
32786;SDS011;19139;49.372;8.580;2023-01-19T06:55:47;2.70;;;2.50;;
32786;SDS011;19139;49.372;8.580;2023-01-19T06:58:14;2.73;;;2.43;;
32786;SDS011;19139;49.372;8.580;2023-01-19T07:00:46;3.20;;;2.50;;
32786;SDS011;19139;49.372;8.580;2023-01-19T07:03:18;3.40;;;3.10;;
32786;SDS011;19139;49.372;8.580;2023-01-19T07:05:49;2.80;;;2.50;;
32786;SDS011;19139;49.372;8.580;2023-01-19T07:08:18;3.10;;;2.60;;
32786;SDS011;19139;49.372;8.580;2023-01-19T07:10:45;3.07;;;2.77;;
32786;SDS011;19139;49.372;8.580;2023-01-19T07:13:32;3.57;;;2.77;;
32786;SDS011;19139;49.372;8.580;2023-01-19T07:18:54;4.53;;;2.93;;
32786;SDS011;19139;49.372;8.580;2023-01-19T07:21:21;2.93;;;2.63;;
32786;SDS011;19139;49.372;8.580;2023-01-19T07:23:49;4.17;;;2.80;;
32786;SDS011;19139;49.372;8.580;2023-01-19T07:26:17;3.17;;;2.60;;
32786;SDS011;19139;49.372;8.580;2023-01-19T07:28:46;3.43;;;3.13;;
32786;SDS011;19139;49.372;8.580;2023-01-19T07:31:13;3.37;;;3.00;;
32786;SDS011;19139;49.372;8.580;2023-01-19T07:33:41;4.03;;;2.80;;
32786;SDS011;19139;49.372;8.580;2023-01-19T07:36:08;3.63;;;2.57;;
32786;SDS011;19139;49.372;8.580;2023-01-19T07:38:35;3.90;;;2.90;;
32786;SDS011;19139;49.372;8.580;2023-01-19T07:41:02;3.63;;;2.90;;
32786;SDS011;19139;49.372;8.580;2023-01-19T07:43:30;3.53;;;2.70;;
32786;SDS011;19139;49.372;8.580;2023-01-19T07:45:58;3.23;;;2.47;;
32786;SDS011;19139;49.372;8.580;2023-01-19T07:48:27;3.97;;;2.97;;
32786;SDS011;19139;49.372;8.580;2023-01-19T07:51:00;3.77;;;2.73;;
32786;SDS011;19139;49.372;8.580;2023-01-19T07:53:33;3.50;;;2.77;;
32786;SDS011;19139;49.372;8.580;2023-01-19T07:56:00;4.23;;;2.57;;
32786;SDS011;19139;49.372;8.580;2023-01-19T07:58:27;3.63;;;2.47;;
32786;SDS011;19139;49.372;8.580;2023-01-19T08:00:58;3.60;;;2.70;;
32786;SDS011;19139;49.372;8.580;2023-01-19T08:03:25;3.10;;;2.60;;
32786;SDS011;19139;49.372;8.580;2023-01-19T08:05:51;2.03;;;1.93;;
32786;SDS011;19139;49.372;8.580;2023-01-19T08:08:18;3.70;;;2.97;;
32786;SDS011;19139;49.372;8.580;2023-01-19T08:10:48;3.43;;;2.30;;
32786;SDS011;19139;49.372;8.580;2023-01-19T08:13:15;3.00;;;2.50;;
32786;SDS011;19139;49.372;8.580;2023-01-19T08:15:42;3.80;;;2.77;;
32786;SDS011;19139;49.372;8.580;2023-01-19T08:18:08;3.47;;;2.77;;
32786;SDS011;19139;49.372;8.580;2023-01-19T08:20:36;3.60;;;2.60;;
32786;SDS011;19139;49.372;8.580;2023-01-19T08:23:08;3.10;;;2.70;;
32786;SDS011;19139;49.372;8.580;2023-01-19T08:25:36;3.27;;;2.97;;
32786;SDS011;19139;49.372;8.580;2023-01-19T08:28:06;3.37;;;2.47;;
32786;SDS011;19139;49.372;8.580;2023-01-19T08:30:38;3.53;;;2.70;;
32786;SDS011;19139;49.372;8.580;2023-01-19T08:33:05;3.83;;;3.00;;
32786;SDS011;19139;49.372;8.580;2023-01-19T08:35:34;2.93;;;2.63;;
32786;SDS011;19139;49.372;8.580;2023-01-19T08:38:05;2.57;;;2.37;;
32786;SDS011;19139;49.372;8.580;2023-01-19T08:40:38;4.37;;;2.60;;
32786;SDS011;19139;49.372;8.580;2023-01-19T08:43:12;2.47;;;2.27;;
32786;SDS011;19139;49.372;8.580;2023-01-19T08:45:48;4.47;;;3.20;;
32786;SDS011;19139;49.372;8.580;2023-01-19T08:48:17;3.27;;;2.97;;
32786;SDS011;19139;49.372;8.580;2023-01-19T08:50:47;2.73;;;2.33;;
32786;SDS011;19139;49.372;8.580;2023-01-19T08:53:15;2.77;;;2.50;;
32786;SDS011;19139;49.372;8.580;2023-01-19T08:55:47;2.70;;;2.50;;
32786;SDS011;19139;49.372;8.580;2023-01-19T08:58:18;4.27;;;2.33;;
32786;SDS011;19139;49.372;8.580;2023-01-19T09:00:45;2.83;;;2.33;;
32786;SDS011;19139;49.372;8.580;2023-01-19T09:03:11;3.00;;;2.40;;
32786;SDS011;19139;49.372;8.580;2023-01-19T09:05:43;2.60;;;2.40;;
32786;SDS011;19139;49.372;8.580;2023-01-19T09:08:15;3.57;;;2.83;;
32786;SDS011;19139;49.372;8.580;2023-01-19T09:10:48;4.00;;;2.60;;
32786;SDS011;19139;49.372;8.580;2023-01-19T09:13:20;2.47;;;2.27;;
32786;SDS011;19139;49.372;8.580;2023-01-19T09:15:51;3.50;;;2.27;;
32786;SDS011;19139;49.372;8.580;2023-01-19T09:18:23;3.03;;;2.00;;
32786;SDS011;19139;49.372;8.580;2023-01-19T09:20:55;2.93;;;2.50;;
32786;SDS011;19139;49.372;8.580;2023-01-19T09:23:27;2.67;;;2.27;;
32786;SDS011;19139;49.372;8.580;2023-01-19T09:25:55;2.40;;;2.20;;
32786;SDS011;19139;49.372;8.580;2023-01-19T09:28:28;2.60;;;2.13;;
32786;SDS011;19139;49.372;8.580;2023-01-19T09:31:04;2.90;;;2.50;;
32786;SDS011;19139;49.372;8.580;2023-01-19T09:33:37;2.97;;;2.27;;
32786;SDS011;19139;49.372;8.580;2023-01-19T09:36:04;3.23;;;2.33;;
32786;SDS011;19139;49.372;8.580;2023-01-19T09:38:35;3.07;;;2.03;;
32786;SDS011;19139;49.372;8.580;2023-01-19T09:41:11;2.40;;;2.20;;
32786;SDS011;19139;49.372;8.580;2023-01-19T09:43:53;3.33;;;2.67;;
32786;SDS011;19139;49.372;8.580;2023-01-19T09:46:39;2.50;;;2.30;;
32786;SDS011;19139;49.372;8.580;2023-01-19T09:49:13;2.33;;;2.00;;
32786;SDS011;19139;49.372;8.580;2023-01-19T09:51:45;2.83;;;2.53;;
32786;SDS011;19139;49.372;8.580;2023-01-19T09:54:18;2.60;;;2.20;;
32786;SDS011;19139;49.372;8.580;2023-01-19T09:56:53;2.87;;;2.33;;
32786;SDS011;19139;49.372;8.580;2023-01-19T09:59:29;2.53;;;2.33;;
32786;SDS011;19139;49.372;8.580;2023-01-19T10:02:05;2.57;;;2.37;;
32786;SDS011;19139;49.372;8.580;2023-01-19T10:05:11;2.40;;;2.20;;
32786;SDS011;19139;49.372;8.580;2023-01-19T10:10:46;3.53;;;1.90;;
32786;SDS011;19139;49.372;8.580;2023-01-19T10:13:28;5.93;;;3.80;;
32786;SDS011;19139;49.372;8.580;2023-01-19T10:19:14;3.03;;;2.30;;
32786;SDS011;19139;49.372;8.580;2023-01-19T10:21:48;2.60;;;2.40;;
32786;SDS011;19139;49.372;8.580;2023-01-19T10:26:54;2.77;;;2.30;;
32786;SDS011;19139;49.372;8.580;2023-01-19T10:29:25;2.50;;;2.30;;
32786;SDS011;19139;49.372;8.580;2023-01-19T10:32:03;2.67;;;2.23;;
32786;SDS011;19139;49.372;8.580;2023-01-19T10:34:38;3.77;;;2.40;;
32786;SDS011;19139;49.372;8.580;2023-01-19T10:37:16;2.50;;;2.30;;
32786;SDS011;19139;49.372;8.580;2023-01-19T10:42:47;3.13;;;2.50;;
32786;SDS011;19139;49.372;8.580;2023-01-19T10:45:15;2.40;;;2.20;;
32786;SDS011;19139;49.372;8.580;2023-01-19T10:47:47;2.67;;;2.47;;
32786;SDS011;19139;49.372;8.580;2023-01-19T10:50:21;3.00;;;2.70;;
32786;SDS011;19139;49.372;8.580;2023-01-19T10:52:55;2.80;;;1.90;;
32786;SDS011;19139;49.372;8.580;2023-01-19T10:55:33;2.20;;;2.00;;
32786;SDS011;19139;49.372;8.580;2023-01-19T10:58:24;2.30;;;1.93;;
32786;SDS011;19139;49.372;8.580;2023-01-19T11:00:56;3.20;;;2.60;;
32786;SDS011;19139;49.372;8.580;2023-01-19T11:03:40;3.47;;;2.50;;
32786;SDS011;19139;49.372;8.580;2023-01-19T11:08:41;2.23;;;2.03;;
32786;SDS011;19139;49.372;8.580;2023-01-19T11:11:09;2.53;;;2.27;;
32786;SDS011;19139;49.372;8.580;2023-01-19T11:13:37;2.70;;;2.13;;
32786;SDS011;19139;49.372;8.580;2023-01-19T11:16:24;2.50;;;2.20;;
32786;SDS011;19139;49.372;8.580;2023-01-19T11:18:56;2.70;;;2.07;;
32786;SDS011;19139;49.372;8.580;2023-01-19T11:21:27;4.07;;;2.40;;
32786;SDS011;19139;49.372;8.580;2023-01-19T11:23:56;2.63;;;2.20;;
32786;SDS011;19139;49.372;8.580;2023-01-19T11:26:27;2.30;;;2.03;;
32786;SDS011;19139;49.372;8.580;2023-01-19T11:28:54;2.57;;;2.30;;
32786;SDS011;19139;49.372;8.580;2023-01-19T11:33:55;2.90;;;2.40;;
32786;SDS011;19139;49.372;8.580;2023-01-19T11:36:33;2.27;;;2.00;;
32786;SDS011;19139;49.372;8.580;2023-01-19T11:41:59;2.47;;;1.70;;
32786;SDS011;19139;49.372;8.580;2023-01-19T11:44:38;2.50;;;2.13;;
32786;SDS011;19139;49.372;8.580;2023-01-19T11:47:13;2.57;;;2.37;;
32786;SDS011;19139;49.372;8.580;2023-01-19T11:52:46;2.93;;;2.40;;
32786;SDS011;19139;49.372;8.580;2023-01-19T11:58:17;2.60;;;2.37;;
32786;SDS011;19139;49.372;8.580;2023-01-19T12:00:46;2.30;;;2.00;;
32786;SDS011;19139;49.372;8.580;2023-01-19T12:06:14;2.50;;;2.20;;
32786;SDS011;19139;49.372;8.580;2023-01-19T12:08:52;3.70;;;2.17;;
32786;SDS011;19139;49.372;8.580;2023-01-19T12:12:02;3.07;;;2.60;;
32786;SDS011;19139;49.372;8.580;2023-01-19T12:14:30;2.10;;;1.90;;
32786;SDS011;19139;49.372;8.580;2023-01-19T12:17:10;3.17;;;2.07;;
32786;SDS011;19139;49.372;8.580;2023-01-19T12:19:50;4.37;;;2.13;;
32786;SDS011;19139;49.372;8.580;2023-01-19T12:22:43;2.50;;;2.03;;
32786;SDS011;19139;49.372;8.580;2023-01-19T12:25:24;3.07;;;2.23;;
32786;SDS011;19139;49.372;8.580;2023-01-19T12:28:01;2.27;;;2.07;;
32786;SDS011;19139;49.372;8.580;2023-01-19T12:30:34;2.27;;;2.07;;
32786;SDS011;19139;49.372;8.580;2023-01-19T12:38:34;2.07;;;1.70;;
32786;SDS011;19139;49.372;8.580;2023-01-19T12:46:44;2.50;;;2.20;;
32786;SDS011;19139;49.372;8.580;2023-01-19T12:49:38;3.90;;;2.60;;
32786;SDS011;19139;49.372;8.580;2023-01-19T12:52:20;3.60;;;2.47;;
32786;SDS011;19139;49.372;8.580;2023-01-19T12:57:37;2.40;;;2.20;;
32786;SDS011;19139;49.372;8.580;2023-01-19T13:13:25;2.33;;;2.07;;
32786;SDS011;19139;49.372;8.580;2023-01-19T13:18:58;2.43;;;2.17;;
32786;SDS011;19139;49.372;8.580;2023-01-19T13:21:37;2.77;;;2.40;;
32786;SDS011;19139;49.372;8.580;2023-01-19T13:24:06;2.20;;;1.80;;
32786;SDS011;19139;49.372;8.580;2023-01-19T13:26:34;1.97;;;1.77;;
32786;SDS011;19139;49.372;8.580;2023-01-19T13:31:41;2.53;;;2.20;;
32786;SDS011;19139;49.372;8.580;2023-01-19T13:34:23;3.10;;;2.23;;
32786;SDS011;19139;49.372;8.580;2023-01-19T13:36:53;2.17;;;1.87;;
32786;SDS011;19139;49.372;8.580;2023-01-19T13:39:27;2.47;;;2.27;;
32786;SDS011;19139;49.372;8.580;2023-01-19T13:42:12;3.20;;;2.33;;
32786;SDS011;19139;49.372;8.580;2023-01-19T13:44:48;2.97;;;2.57;;
32786;SDS011;19139;49.372;8.580;2023-01-19T13:47:25;2.30;;;2.10;;
32786;SDS011;19139;49.372;8.580;2023-01-19T13:50:28;2.73;;;2.30;;
32786;SDS011;19139;49.372;8.580;2023-01-19T13:53:00;1.97;;;1.80;;
32786;SDS011;19139;49.372;8.580;2023-01-19T13:55:32;2.07;;;1.87;;
32786;SDS011;19139;49.372;8.580;2023-01-19T13:58:04;2.90;;;2.60;;
32786;SDS011;19139;49.372;8.580;2023-01-19T14:00:50;2.13;;;1.93;;
32786;SDS011;19139;49.372;8.580;2023-01-19T14:03:22;2.47;;;2.07;;
32786;SDS011;19139;49.372;8.580;2023-01-19T14:05:50;2.30;;;2.00;;
32786;SDS011;19139;49.372;8.580;2023-01-19T14:08:23;3.43;;;1.80;;
32786;SDS011;19139;49.372;8.580;2023-01-19T14:13:29;2.10;;;1.90;;
32786;SDS011;19139;49.372;8.580;2023-01-19T14:16:04;2.07;;;1.67;;
32786;SDS011;19139;49.372;8.580;2023-01-19T14:18:32;2.03;;;1.63;;
32786;SDS011;19139;49.372;8.580;2023-01-19T14:21:01;3.40;;;1.90;;
32786;SDS011;19139;49.372;8.580;2023-01-19T14:23:39;2.40;;;2.20;;
32786;SDS011;19139;49.372;8.580;2023-01-19T14:29:29;2.00;;;1.80;;
32786;SDS011;19139;49.372;8.580;2023-01-19T14:32:17;1.40;;;1.30;;
32786;SDS011;19139;49.372;8.580;2023-01-19T14:34:47;4.07;;;2.07;;
32786;SDS011;19139;49.372;8.580;2023-01-19T14:37:30;2.03;;;1.80;;
32786;SDS011;19139;49.372;8.580;2023-01-19T14:40:00;2.30;;;2.10;;
32786;SDS011;19139;49.372;8.580;2023-01-19T14:42:30;2.03;;;1.90;;
32786;SDS011;19139;49.372;8.580;2023-01-19T14:45:02;2.00;;;1.80;;
32786;SDS011;19139;49.372;8.580;2023-01-19T14:47:38;1.90;;;1.50;;
32786;SDS011;19139;49.372;8.580;2023-01-19T14:50:18;2.60;;;1.90;;
32786;SDS011;19139;49.372;8.580;2023-01-19T14:52:50;2.87;;;2.43;;
32786;SDS011;19139;49.372;8.580;2023-01-19T14:55:23;2.57;;;1.90;;
32786;SDS011;19139;49.372;8.580;2023-01-19T14:57:56;3.03;;;2.47;;
32786;SDS011;19139;49.372;8.580;2023-01-19T15:00:28;2.43;;;1.83;;
32786;SDS011;19139;49.372;8.580;2023-01-19T15:02:54;2.20;;;1.97;;
32786;SDS011;19139;49.372;8.580;2023-01-19T15:05:26;2.10;;;1.90;;
32786;SDS011;19139;49.372;8.580;2023-01-19T15:07:58;1.70;;;1.60;;
32786;SDS011;19139;49.372;8.580;2023-01-19T15:10:26;2.13;;;1.93;;
32786;SDS011;19139;49.372;8.580;2023-01-19T15:12:54;2.10;;;1.90;;
32786;SDS011;19139;49.372;8.580;2023-01-19T15:15:30;2.00;;;1.80;;
32786;SDS011;19139;49.372;8.580;2023-01-19T15:17:58;2.07;;;1.87;;
32786;SDS011;19139;49.372;8.580;2023-01-19T15:20:27;2.03;;;1.80;;
32786;SDS011;19139;49.372;8.580;2023-01-19T15:22:54;2.30;;;2.10;;
32786;SDS011;19139;49.372;8.580;2023-01-19T15:25:26;2.10;;;1.90;;
32786;SDS011;19139;49.372;8.580;2023-01-19T15:27:57;3.00;;;1.97;;
32786;SDS011;19139;49.372;8.580;2023-01-19T15:30:25;2.10;;;1.63;;
32786;SDS011;19139;49.372;8.580;2023-01-19T15:32:55;2.37;;;1.70;;
32786;SDS011;19139;49.372;8.580;2023-01-19T15:35:28;2.43;;;2.20;;
32786;SDS011;19139;49.372;8.580;2023-01-19T15:37:55;2.03;;;1.67;;
32786;SDS011;19139;49.372;8.580;2023-01-19T15:40:27;2.40;;;1.93;;
32786;SDS011;19139;49.372;8.580;2023-01-19T15:42:58;2.10;;;1.90;;
32786;SDS011;19139;49.372;8.580;2023-01-19T15:45:37;1.87;;;1.70;;
32786;SDS011;19139;49.372;8.580;2023-01-19T15:48:05;1.93;;;1.70;;
32786;SDS011;19139;49.372;8.580;2023-01-19T15:50:39;2.53;;;2.03;;
32786;SDS011;19139;49.372;8.580;2023-01-19T15:53:15;2.53;;;1.87;;
32786;SDS011;19139;49.372;8.580;2023-01-19T15:55:49;2.47;;;1.97;;
32786;SDS011;19139;49.372;8.580;2023-01-19T15:58:17;2.00;;;1.80;;
32786;SDS011;19139;49.372;8.580;2023-01-19T16:00:51;2.33;;;2.13;;
32786;SDS011;19139;49.372;8.580;2023-01-19T16:03:27;2.40;;;1.87;;
32786;SDS011;19139;49.372;8.580;2023-01-19T16:05:54;1.67;;;1.53;;
32786;SDS011;19139;49.372;8.580;2023-01-19T16:08:20;2.20;;;1.60;;
32786;SDS011;19139;49.372;8.580;2023-01-19T16:10:47;2.00;;;1.70;;
32786;SDS011;19139;49.372;8.580;2023-01-19T16:13:18;2.77;;;1.87;;
32786;SDS011;19139;49.372;8.580;2023-01-19T16:15:45;2.03;;;1.73;;
32786;SDS011;19139;49.372;8.580;2023-01-19T16:18:12;2.07;;;1.63;;
32786;SDS011;19139;49.372;8.580;2023-01-19T16:20:38;2.23;;;1.70;;
32786;SDS011;19139;49.372;8.580;2023-01-19T16:23:05;2.37;;;1.80;;
32786;SDS011;19139;49.372;8.580;2023-01-19T16:25:40;3.97;;;2.27;;
32786;SDS011;19139;49.372;8.580;2023-01-19T16:28:07;4.33;;;2.93;;
32786;SDS011;19139;49.372;8.580;2023-01-19T16:30:34;2.60;;;2.10;;
32786;SDS011;19139;49.372;8.580;2023-01-19T16:33:05;4.93;;;2.10;;
32786;SDS011;19139;49.372;8.580;2023-01-19T16:35:38;3.90;;;2.00;;
32786;SDS011;19139;49.372;8.580;2023-01-19T16:38:04;5.17;;;2.17;;
32786;SDS011;19139;49.372;8.580;2023-01-19T16:40:36;6.67;;;2.57;;
32786;SDS011;19139;49.372;8.580;2023-01-19T16:43:08;4.40;;;2.00;;
32786;SDS011;19139;49.372;8.580;2023-01-19T16:45:37;2.27;;;1.77;;